Hamilton Airport, Ontario

3:28 PM EDT on August 20, 2014 (GMT -0400)
Hamilton | Change Station
CLOSE
Current Station
Airport
Location: Hamilton Airport,
Elevation: 781 ft
Nearby Weather Stations

Elev 781 ft 43.17 °N, 79.93 °W | Updated 28 minutes ago

Mostly Cloudy
Mostly Cloudy
75 °F
Feels Like 75 °F
N
12
Wind Variable Wind from SSE

Today is forecast to be nearly the same temperature as yesterday.

Today
High -- | Low -- °F
--% Chance of Precip.
Yesterday
High -- | Low -- °F
Precip. -- in
6:30 AM 8:14 PM
Waning Crescent, 19% visible
Pressure 29.88 in
Visibility 8.0 miles
Clouds Few 1500 ft
Mostly Cloudy 3000 ft
Mostly Cloudy 6500 ft
Dew Point 70 °F
Humidity 83%
Rainfall 0.00 in
Snow Depth Not available.
UV 4 out of 12
Pollen Not available.
Air Quality Not available.
Flu Activity Not available.
METAR CYHM 201900Z 16010KT 8SM FEW015 BKN030 BKN065 24/21 A2989 RMK CU2SC3SC1 SLP119 DENSITY ALT 2000FT

More Conditions Fewer Conditions

Pressure 29.88 in
Visibility 8.0 miles
Clouds Few 1500 ft
Mostly Cloudy 3000 ft
Mostly Cloudy 6500 ft
Dew Point 70 °F
Humidity 83%
Rainfall 0.00 in
Snow Depth Not available.
UV 4 out of 12
Pollen Not available.
Air Quality Not available.
Flu Activity Not available.
METAR CYHM 201900Z 16010KT 8SM FEW015 BKN030 BKN065 24/21 A2989 RMK CU2SC3SC1 SLP119 DENSITY ALT 2000FT

More Conditions Fewer Conditions

10-Day Weather Forecast

Almanac

Astronomy

Aug. 20, 2014 Rise Set
Actual Time 6:30 AM EDT 8:14 PM EDT
Civil Twilight 6:00 AM EDT 8:44 PM EDT
Nautical Twilight 5:23 AM EDT 9:21 PM EDT
Astronomical Twilight 4:43 AM EDT 10:00 PM EDT
Moon 2:06 AM EDT 5:01 PM EDT
Length of Visible Light 14h 44m
Length of Day
13h 43m
Tomorrow will be 2m 42s shorter.
Waning Crescent, 19% of the Moon is Illuminated
Today
Waning Crescent
Aug 25
New
Sep 2
First Quarter
Sep 8
Full
Sep 15
Last Quarter

Today's Extremes

Country Highs Country Lows

Community

WunderPhotos

Upload Photos

1,745,724 photos uploaded!

WunderBlogs® & News

By Dr. Jeff Masters
Director of Meteorology, Weather Underground
By Kari Strenfel
Meteorologist, Weather Underground
By Christopher C. Burt
Weather Historian, Weather Underground
August 20, 2014
August 20, 2014
August 20, 2014

Nearby

Snow Depth

Not available.

Earthquake Activity

City Distance Mag. Time & Date
No recent earthquake activity has been reported nearby.
Minimum magnitude displayed is 2.5.

Coastal Water Temperatures

Place Temperature
No Stations Reporting

Nearby Weather Stations